< < Back
Terminal Aerodrome Forecast


Current Version              Previous Versions:   1  2  3  4  5  6  7  8  9  

Terminal Aerodrome Forecast

127
FTUS42 KCHS 262331
TAFSAV
TAF
KSAV 262331Z 2700/2724 VRB04KT P6SM SCT025 SCT040
     FM270900 VRB02KT 6SM BR SCT005 SCT015
     FM271400 07008KT P6SM SCT020 SCT040=

Latest METAR

212
SAUS80 KWBC 280200
MTRSAV
METAR KSAV 280153Z 10005KT 10SM SCT200 27/22 A3001 RMK AO2 SLP162
T02670217


USA.gov is the U.S. government's official web portal to all federal, state and local government web resources and services.